Time;durP1;ratioP1;P1;durP2;ratioP2;P2;SDS_P1;SDS_P2;PMS_P1;PMS_P2;Temp;Humidity;BMP_temperature;BMP_pressure;BME280_temperature;BME280_humidity;BME280_pressure;Samples;Min_cycle;Max_cycle;Signal;HPM_P1;HPM_P2
2021/12/11 00:02:43;;;;;;;;;;;;;;;-0.22;100.00;99440.09;5618011;31;33736;-81
2021/12/11 00:05:51;;;;;;;;;;;;;;;-0.20;100.00;99443.44;5618100;31;34402;-81
2021/12/11 00:08:55;;;;;;;;;;;;;;;-0.22;100.00;99446.09;5617529;31;34494;-81
2021/12/11 00:12:02;;;;;;;;;;;;;;;-0.10;100.00;99449.75;5617855;31;34959;-81
2021/12/11 00:15:14;;;;;;;;;;;;;;;-0.09;100.00;99455.75;5617220;31;34302;-82
2021/12/11 00:18:20;;;;;;;;;;;;;;;-0.11;100.00;99458.47;5616022;31;34957;-82
2021/12/11 00:21:23;;;;;;;;;;;;;;;-0.13;100.00;99460.31;5616045;31;34434;-82
2021/12/11 00:24:31;;;;;;;;;;;;;;;-0.17;100.00;99458.84;5617651;31;33955;-83
2021/12/11 00:27:38;;;;;;;;;;;;;;;-0.11;100.00;99468.88;5616070;31;34752;-82
2021/12/11 00:30:45;;;;;;;;;;;;;;;-0.10;100.00;99486.12;5616211;31;34217;-82
2021/12/11 00:33:48;;;;;;;;;;;;;;;-0.11;100.00;99489.66;5617300;31;34590;-81
2021/12/11 00:36:56;;;;;;;;;;;;;;;-0.09;100.00;99493.00;5619465;31;34926;-81
2021/12/11 00:40:18;;;;;;;;;;;;;;;-0.03;100.00;99492.63;5618103;31;34245;-81
2021/12/11 00:43:27;;;;;;;;;;;;;;;-0.06;100.00;99499.78;5617343;31;34389;-81
2021/12/11 00:46:30;;;;;;;;;;;;;;;-0.06;100.00;99503.25;5619014;31;34415;-81
2021/12/11 00:49:33;;;;;;;;;;;;;;;-0.03;100.00;99523.00;5616724;31;34900;-81
2021/12/11 00:52:37;;;;;;;;;;;;;;;-0.01;100.00;99518.56;5616417;31;34238;-81
2021/12/11 00:55:42;;;;;;;;;;;;;;;-0.01;100.00;99521.97;5616231;31;35364;-81
2021/12/11 00:58:56;;;;;;;;;;;;;;;0.01;100.00;99529.69;5617373;31;34515;-81
2021/12/11 01:01:59;;;;;;;;;;;;;;;0.07;100.00;99539.72;5617325;31;34194;-81
2021/12/11 01:05:09;;;;;;;;;;;;;;;0.10;100.00;99544.75;5617777;31;34079;-82
2021/12/11 01:08:18;;;;;;;;;;;;;;;0.04;100.00;99546.88;5617551;31;34276;-81
2021/12/11 01:11:22;;;;;;;;;;;;;;;0.11;100.00;99550.78;5615830;31;34304;-81
2021/12/11 01:14:37;;;;;;;;;;;;;;;0.10;100.00;99552.56;5617065;31;34504;-81
2021/12/11 01:17:58;;;;;;;;;;;;;;;0.10;100.00;99552.56;5617195;31;35074;-81
2021/12/11 01:21:26;;;;;;;;;;;;;;;0.07;100.00;99551.87;5616849;31;34217;-81
2021/12/11 01:24:45;;;;;;;;;;;;;;;0.15;100.00;99557.47;5615449;31;35024;-81
2021/12/11 01:27:49;;;;;;;;;;;;;;;0.10;100.00;99551.72;5615128;31;34556;-81
2021/12/11 01:30:55;;;;;;;;;;;;;;;0.18;100.00;99553.84;5617402;31;34545;-81
2021/12/11 01:33:58;;;;;;;;;;;;;;;0.28;100.00;99547.16;5617357;31;34910;-81
2021/12/11 01:37:03;;;;;;;;;;;;;;;0.26;100.00;99549.00;5615373;31;34113;-81
2021/12/11 01:40:10;;;;;;;;;;;;;;;0.20;100.00;99550.22;5617341;31;34489;-81
2021/12/11 01:43:16;;;;;;;;;;;;;;;0.24;100.00;99546.50;5616142;31;34943;-81
2021/12/11 01:46:20;;;;;;;;;;;;;;;0.14;100.00;99546.22;5619934;31;34259;-81
2021/12/11 01:49:23;;;;;;;;;;;;;;;0.23;100.00;99562.19;5622653;31;35551;-81
2021/12/11 01:52:37;;;;;;;;;;;;;;;0.26;100.00;99562.88;5618437;31;35060;-81
2021/12/11 01:55:42;;;;;;;;;;;;;;;0.26;100.00;99564.63;5616376;31;32596;-81
2021/12/11 01:58:47;;;;;;;;;;;;;;;0.18;100.00;99559.87;5615857;31;34640;-81
2021/12/11 02:02:01;;;;;;;;;;;;;;;0.20;100.00;99571.03;5617053;31;34053;-81
2021/12/11 02:05:11;;;;;;;;;;;;;;;0.24;100.00;99566.47;5617819;31;34975;-81
2021/12/11 02:08:19;;;;;;;;;;;;;;;0.14;100.00;99561.00;5615277;31;34431;-81
2021/12/11 02:11:24;;;;;;;;;;;;;;;0.13;100.00;99561.94;5616454;31;34325;-82
2021/12/11 02:14:33;;;;;;;;;;;;;;;0.16;100.00;99551.34;5616475;31;34273;-81
2021/12/11 02:17:47;;;;;;;;;;;;;;;0.23;100.00;99565.66;5618224;31;34924;-81
2021/12/11 02:20:56;;;;;;;;;;;;;;;0.22;100.00;99574.37;5619179;31;35253;-82
2021/12/11 02:24:03;;;;;;;;;;;;;;;0.17;100.00;99566.00;5617309;31;34316;-81
2021/12/11 02:27:08;;;;;;;;;;;;;;;0.18;100.00;99557.28;5616588;31;34595;-81
2021/12/11 02:30:18;;;;;;;;;;;;;;;0.21;100.00;99551.06;5616722;31;34021;-81
2021/12/11 02:33:26;;;;;;;;;;;;;;;0.17;100.00;99555.59;5615371;31;34099;-83
2021/12/11 02:36:31;;;;;;;;;;;;;;;0.19;100.00;99556.34;5615395;31;34166;-82
2021/12/11 02:39:43;;;;;;;;;;;;;;;0.10;100.00;99554.31;5615065;31;34379;-81
2021/12/11 02:42:46;;;;;;;;;;;;;;;0.05;100.00;99546.78;5616454;31;34429;-81
2021/12/11 02:45:55;;;;;;;;;;;;;;;0.06;100.00;99542.41;5614674;31;35013;-81
2021/12/11 02:49:11;;;;;;;;;;;;;;;0.07;100.00;99544.09;5615873;31;33910;-81
2021/12/11 02:52:19;;;;;;;;;;;;;;;0.05;100.00;99545.97;5615907;31;34387;-81
2021/12/11 02:55:31;;;;;;;;;;;;;;;0.08;100.00;99535.34;5615822;31;34060;-81
2021/12/11 02:58:40;;;;;;;;;;;;;;;0.23;100.00;99542.22;5616053;31;34537;-81
2021/12/11 03:01:49;;;;;;;;;;;;;;;0.08;100.00;99535.34;5615728;31;34381;-81
2021/12/11 03:04:55;;;;;;;;;;;;;;;0.23;100.00;99550.03;5616308;31;34431;-82
2021/12/11 03:08:01;;;;;;;;;;;;;;;0.10;100.00;99538.69;5616547;31;34497;-81
2021/12/11 03:11:05;;;;;;;;;;;;;;;0.12;100.00;99534.25;5618559;31;34456;-81
2021/12/11 03:14:12;;;;;;;;;;;;;;;0.07;100.00;99531.94;5617698;31;34771;-81
2021/12/11 03:17:17;;;;;;;;;;;;;;;-0.01;100.00;99526.38;5617787;31;34335;-81
2021/12/11 03:20:21;;;;;;;;;;;;;;;0.03;100.00;99532.22;5616677;31;34659;-81
2021/12/11 03:23:24;;;;;;;;;;;;;;;0.04;100.00;99544.28;5618452;31;34433;-82
2021/12/11 03:26:29;;;;;;;;;;;;;;;0.07;100.00;99554.47;5618304;31;34048;-82
2021/12/11 03:29:31;;;;;;;;;;;;;;;0.01;100.00;99549.66;5620543;31;34557;-81
2021/12/11 03:32:35;;;;;;;;;;;;;;;0.05;100.00;99566.78;5619340;31;34566;-82
2021/12/11 03:35:40;;;;;;;;;;;;;;;0.02;100.00;99572.97;5619071;31;34145;-81
2021/12/11 03:38:45;;;;;;;;;;;;;;;0.06;100.00;99576.22;5618254;31;35051;-82
2021/12/11 03:41:49;;;;;;;;;;;;;;;0.13;100.00;99591.38;5617777;31;34983;-81
2021/12/11 03:44:52;;;;;;;;;;;;;;;0.05;100.00;99592.78;5617632;31;33811;-81
2021/12/11 03:47:57;;;;;;;;;;;;;;;0.05;100.00;99596.19;5617458;31;35177;-81
2021/12/11 03:51:01;;;;;;;;;;;;;;;0.04;100.00;99601.50;5616628;31;34207;-81
2021/12/11 03:54:05;;;;;;;;;;;;;;;0.00;100.00;99606.06;5618401;31;34638;-81
2021/12/11 03:57:11;;;;;;;;;;;;;;;0.04;100.00;99607.53;5616571;31;34842;-81
2021/12/11 04:00:16;;;;;;;;;;;;;;;0.09;100.00;99604.66;5617771;31;34859;-81
2021/12/11 04:03:20;;;;;;;;;;;;;;;0.09;100.00;99608.12;5616687;31;34102;-81
2021/12/11 04:06:25;;;;;;;;;;;;;;;0.07;100.00;99601.31;5603916;31;34517;-81
2021/12/11 04:09:28;;;;;;;;;;;;;;;0.05;100.00;99604.00;5616733;31;34582;-82
2021/12/11 04:12:41;;;;;;;;;;;;;;;0.16;100.00;99605.97;5616247;31;35014;-81
2021/12/11 04:15:45;;;;;;;;;;;;;;;0.08;100.00;99602.97;5616332;31;34539;-81
2021/12/11 04:18:48;;;;;;;;;;;;;;;-0.03;100.00;99607.06;5617659;31;34553;-81
2021/12/11 04:21:50;;;;;;;;;;;;;;;-0.04;100.00;99610.56;5618203;31;34574;-81
2021/12/11 04:24:56;;;;;;;;;;;;;;;-0.06;100.00;99612.47;5618394;31;34186;-81
2021/12/11 04:27:59;;;;;;;;;;;;;;;-0.03;100.00;99607.06;5624243;31;35395;-81
2021/12/11 04:31:06;;;;;;;;;;;;;;;0.00;100.00;99611.25;5620021;31;34691;-81
2021/12/11 04:34:14;;;;;;;;;;;;;;;-0.01;100.00;99613.00;5616905;31;34191;-81
2021/12/11 04:37:21;;;;;;;;;;;;;;;0.05;100.00;99624.00;5616427;31;34148;-82
2021/12/11 04:40:27;;;;;;;;;;;;;;;0.01;100.00;99606.88;5617692;31;34331;-81
2021/12/11 04:43:30;;;;;;;;;;;;;;;-0.01;100.00;99605.22;5617653;31;34182;-81
2021/12/11 04:46:32;;;;;;;;;;;;;;;0.04;100.00;99617.12;5617241;31;34042;-82
2021/12/11 04:49:43;;;;;;;;;;;;;;;0.04;100.00;99614.50;5616060;31;34000;-81
2021/12/11 04:52:55;;;;;;;;;;;;;;;0.10;100.00;99611.53;5616858;31;34268;-82
2021/12/11 05:12:35;;;;;;;;;;;;;;;0.16;100.00;99647.59;5497089;32;34113;-81
2021/12/11 05:15:40;;;;;;;;;;;;;;;0.03;100.00;99652.66;5497086;32;34254;-81
2021/12/11 05:18:43;;;;;;;;;;;;;;;0.01;100.00;99659.72;5497399;32;34930;-81
2021/12/11 05:21:47;;;;;;;;;;;;;;;-0.01;100.00;99662.41;5497066;32;33819;-82
2021/12/11 05:24:51;;;;;;;;;;;;;;;0.06;100.00;99669.84;5497859;32;34506;-82
2021/12/11 05:27:54;;;;;;;;;;;;;;;0.23;100.00;99659.31;5498563;32;34288;-82
2021/12/11 05:30:57;;;;;;;;;;;;;;;0.18;100.00;99661.34;5497605;32;35236;-82
2021/12/11 05:34:00;;;;;;;;;;;;;;;0.11;100.00;99655.66;5497419;32;35420;-82
2021/12/11 05:37:03;;;;;;;;;;;;;;;0.09;100.00;99651.47;5568381;31;34408;-82
2021/12/11 05:40:10;;;;;;;;;;;;;;;0.14;100.00;99659.84;5615793;31;34463;-82
2021/12/11 05:43:12;;;;;;;;;;;;;;;-0.02;100.00;99657.31;5616276;31;34485;-82
2021/12/11 05:46:16;;;;;;;;;;;;;;;-0.07;100.00;99660.19;5617199;31;34617;-82
2021/12/11 05:49:30;;;;;;;;;;;;;;;-0.05;100.00;99676.53;5603535;31;34347;-82
2021/12/11 05:52:36;;;;;;;;;;;;;;;0.01;100.00;99679.69;5617158;31;34968;-82
2021/12/11 05:55:40;;;;;;;;;;;;;;;0.06;100.00;99682.84;5616303;31;34984;-82
2021/12/11 06:02:12;;;;;;;;;;;;;;;-0.07;100.00;99696.59;5618523;31;35042;-82
2021/12/11 06:05:15;;;;;;;;;;;;;;;-0.09;100.00;99698.44;5620493;31;34398;-82
2021/12/11 06:08:18;;;;;;;;;;;;;;;-0.08;100.00;99707.94;5617231;31;34697;-82
2021/12/11 06:11:22;;;;;;;;;;;;;;;-0.03;100.00;99710.25;5615601;31;34907;-81
2021/12/11 06:14:25;;;;;;;;;;;;;;;-0.24;100.00;99714.91;5616176;31;34288;-84
2021/12/11 06:17:42;;;;;;;;;;;;;;;-0.21;100.00;99722.53;5617056;31;34534;-82
2021/12/11 06:20:45;;;;;;;;;;;;;;;-0.24;100.00;99730.50;5617137;31;34209;-82
2021/12/11 06:23:48;;;;;;;;;;;;;;;-0.19;100.00;99746.69;5618752;31;34354;-82
2021/12/11 06:26:51;;;;;;;;;;;;;;;-0.07;100.00;99758.16;5617093;31;34187;-82
2021/12/11 06:29:54;;;;;;;;;;;;;;;0.03;100.00;99758.47;5616142;31;34569;-81
2021/12/11 06:32:57;;;;;;;;;;;;;;;-0.09;100.00;99768.66;5617263;31;34216;-81
2021/12/11 06:36:10;;;;;;;;;;;;;;;0.01;100.00;99778.53;5618056;31;34300;-82
2021/12/11 06:39:17;;;;;;;;;;;;;;;0.03;100.00;99787.09;5605272;31;34532;-83
2021/12/11 06:42:20;;;;;;;;;;;;;;;0.09;100.00;99802.34;5594766;31;34565;-83
2021/12/11 06:45:24;;;;;;;;;;;;;;;0.02;100.00;99812.25;5595211;31;35091;-82
2021/12/11 06:48:30;;;;;;;;;;;;;;;-0.03;100.00;99814.28;5592925;31;34342;-82
2021/12/11 06:51:32;;;;;;;;;;;;;;;-0.08;100.00;99808.50;5596904;31;34393;-83
2021/12/11 06:54:35;;;;;;;;;;;;;;;0.07;100.00;99814.59;5596129;31;33087;-82
2021/12/11 06:57:38;;;;;;;;;;;;;;;-0.01;100.00;99817.66;5596450;31;35208;-82
2021/12/11 07:00:40;;;;;;;;;;;;;;;0.02;100.00;99827.03;5594911;31;34750;-84
2021/12/11 07:03:44;;;;;;;;;;;;;;;0.04;100.00;99833.00;5594900;31;35188;-83
2021/12/11 07:06:54;;;;;;;;;;;;;;;0.09;100.00;99833.56;5595425;31;34189;-83
2021/12/11 07:09:58;;;;;;;;;;;;;;;0.11;100.00;99839.53;5595229;31;34341;-83
2021/12/11 07:13:01;;;;;;;;;;;;;;;0.03;100.00;99854.72;5594745;31;34963;-83
2021/12/11 07:16:06;;;;;;;;;;;;;;;0.09;100.00;99859.56;5595046;31;34530;-83
2021/12/11 07:19:10;;;;;;;;;;;;;;;0.10;100.00;99879.47;5596341;31;33907;-83
2021/12/11 07:22:12;;;;;;;;;;;;;;;0.18;100.00;99890.28;5595034;31;34647;-82
2021/12/11 07:25:16;;;;;;;;;;;;;;;0.21;100.00;99897.91;5596570;31;34382;-83
2021/12/11 07:28:21;;;;;;;;;;;;;;;0.42;100.00;99900.25;5594909;31;34541;-82
2021/12/11 07:31:24;;;;;;;;;;;;;;;0.32;100.00;99906.88;5594755;31;35442;-82
2021/12/11 07:34:27;;;;;;;;;;;;;;;0.33;100.00;99914.63;5596370;31;34219;-83
2021/12/11 07:37:29;;;;;;;;;;;;;;;0.26;100.00;99923.69;5595802;31;34431;-83
2021/12/11 07:40:37;;;;;;;;;;;;;;;0.32;100.00;99919.91;5595541;31;34297;-83
2021/12/11 07:43:41;;;;;;;;;;;;;;;0.35;100.00;99917.13;5593791;31;35060;-83
2021/12/11 07:46:48;;;;;;;;;;;;;;;0.43;100.00;99934.00;5593977;31;34347;-82
2021/12/11 07:49:50;;;;;;;;;;;;;;;0.41;100.00;99935.00;5595878;31;34691;-83
2021/12/11 07:52:53;;;;;;;;;;;;;;;0.51;100.00;99936.16;5594950;31;35364;-83
2021/12/11 07:55:56;;;;;;;;;;;;;;;0.59;100.00;99938.34;5599226;31;34327;-82
2021/12/11 07:59:00;;;;;;;;;;;;;;;0.46;100.00;99926.00;5596727;31;34441;-83
2021/12/11 08:02:03;;;;;;;;;;;;;;;0.51;100.00;99928.34;5596928;31;34444;-82
2021/12/11 08:05:07;;;;;;;;;;;;;;;0.53;100.00;99918.69;5596267;31;34906;-81
2021/12/11 08:08:12;;;;;;;;;;;;;;;0.55;100.00;99916.03;5596841;31;34039;-81
2021/12/11 08:11:19;;;;;;;;;;;;;;;0.60;100.00;99927.00;5596423;31;34308;-82
2021/12/11 08:14:22;;;;;;;;;;;;;;;0.61;100.00;99932.16;5597825;31;33986;-82
2021/12/11 08:17:25;;;;;;;;;;;;;;;0.61;100.00;99928.69;5597240;31;33963;-82
2021/12/11 08:20:31;;;;;;;;;;;;;;;0.68;100.00;99931.78;5597114;31;34931;-82
2021/12/11 08:23:40;;;;;;;;;;;;;;;0.79;100.00;99937.22;5596452;31;35336;-82
2021/12/11 08:26:43;;;;;;;;;;;;;;;0.89;100.00;99954.00;5596321;31;34560;-82
2021/12/11 08:29:47;;;;;;;;;;;;;;;1.04;100.00;99946.25;5595917;31;34794;-82
2021/12/11 08:32:50;;;;;;;;;;;;;;;0.82;100.00;99942.28;5597004;31;35532;-83
2021/12/11 08:35:54;;;;;;;;;;;;;;;0.86;100.00;99945.53;5596424;31;34252;-82
2021/12/11 08:38:59;;;;;;;;;;;;;;;0.97;100.00;99950.09;5598487;31;34479;-82
2021/12/11 08:42:04;;;;;;;;;;;;;;;1.01;100.00;99959.44;5604484;31;34954;-82
2021/12/11 08:45:10;;;;;;;;;;;;;;;1.19;100.00;99960.97;5602762;31;34515;-84
2021/12/11 08:48:16;;;;;;;;;;;;;;;1.14;100.00;99968.22;5597699;31;34133;-83
2021/12/11 08:51:22;;;;;;;;;;;;;;;1.07;100.00;99972.09;5596125;31;34789;-83
2021/12/11 08:54:26;;;;;;;;;;;;;;;1.13;100.00;99965.69;5596656;31;35084;-84
2021/12/11 08:57:30;;;;;;;;;;;;;;;0.92;100.00;99966.84;5597305;31;34143;-84
2021/12/11 09:00:38;;;;;;;;;;;;;;;0.99;100.00;99963.91;5599918;31;34771;-84
2021/12/11 09:03:50;;;;;;;;;;;;;;;0.91;100.00;99967.78;5598562;31;34975;-83
2021/12/11 09:07:01;;;;;;;;;;;;;;;1.01;100.00;99977.66;5596076;31;34576;-83
2021/12/11 09:10:04;;;;;;;;;;;;;;;0.99;100.00;99971.72;5595804;31;34675;-83
2021/12/11 09:13:13;;;;;;;;;;;;;;;0.82;100.00;99986.53;5595822;31;34783;-83
2021/12/11 09:16:22;;;;;;;;;;;;;;;0.98;100.00;99983.06;5595489;31;34672;-82
2021/12/11 09:19:33;;;;;;;;;;;;;;;0.96;100.00;99979.72;5600129;31;33971;-82
2021/12/11 09:22:44;;;;;;;;;;;;;;;1.10;100.00;99981.53;5596537;31;34117;-82
2021/12/11 09:25:50;;;;;;;;;;;;;;;1.23;100.00;99993.75;5596147;31;34268;-82
2021/12/11 09:29:22;;;;;;;;;;;;;;;1.17;100.00;99996.72;5594641;31;34533;-82
2021/12/11 09:32:25;;;;;;;;;;;;;;;1.04;100.00;99998.34;5582841;31;34092;-83
2021/12/11 09:35:33;;;;;;;;;;;;;;;0.99;100.00;99995.16;5595830;31;34284;-83
2021/12/11 09:38:41;;;;;;;;;;;;;;;1.02;100.00;100005.41;5595482;31;33893;-83
2021/12/11 09:41:43;;;;;;;;;;;;;;;1.11;100.00;100004.88;5595972;31;34594;-82
2021/12/11 09:44:46;;;;;;;;;;;;;;;1.05;100.00;100010.44;5595348;31;34292;-82
2021/12/11 09:47:52;;;;;;;;;;;;;;;0.94;100.00;100018.03;5596764;31;34629;-82
2021/12/11 09:51:02;;;;;;;;;;;;;;;0.96;100.00;100021.41;5597285;31;34160;-82
2021/12/11 09:54:10;;;;;;;;;;;;;;;0.98;100.00;100019.53;5595160;31;34543;-83
2021/12/11 09:57:14;;;;;;;;;;;;;;;1.08;100.00;100025.88;5597876;31;34520;-82
2021/12/11 10:00:22;;;;;;;;;;;;;;;1.19;100.00;100018.28;5594951;31;34343;-82
2021/12/11 10:03:29;;;;;;;;;;;;;;;1.00;100.00;100033.31;5595195;31;34202;-82
2021/12/11 10:07:23;;;;;;;;;;;;;;;1.05;100.00;100020.88;5595598;31;34447;-82
2021/12/11 10:10:04;;;;;;;;;;;;;;;1.12;100.00;100016.16;5593815;31;34013;-82
2021/12/11 10:13:09;;;;;;;;;;;;;;;1.27;100.00;100004.00;5595384;31;35007;-82
2021/12/11 10:16:13;;;;;;;;;;;;;;;1.22;100.00;100012.91;5596200;31;34766;-82
2021/12/11 10:19:18;;;;;;;;;;;;;;;1.27;100.00;100001.41;5597353;31;34477;-82
2021/12/11 10:22:23;;;;;;;;;;;;;;;1.21;100.00;99998.22;5595237;31;35085;-83
2021/12/11 10:25:30;;;;;;;;;;;;;;;1.22;100.00;99996.47;5595670;31;34418;-82
2021/12/11 10:28:41;;;;;;;;;;;;;;;1.11;100.00;99994.47;5595842;31;34108;-82
2021/12/11 10:31:53;;;;;;;;;;;;;;;1.25;100.00;100005.84;5596493;31;34626;-82
2021/12/11 10:35:00;;;;;;;;;;;;;;;1.27;100.00;100009.22;5595134;31;33769;-82
2021/12/11 10:38:05;;;;;;;;;;;;;;;1.15;100.00;100006.37;5596502;31;34336;-82
2021/12/11 10:41:09;;;;;;;;;;;;;;;1.37;100.00;100026.81;5596767;31;34289;-82
2021/12/11 10:44:13;;;;;;;;;;;;;;;1.25;100.00;100027.53;5599523;31;34169;-82
2021/12/11 10:47:26;;;;;;;;;;;;;;;1.23;100.00;100030.22;5597311;31;36569;-82
2021/12/11 10:50:48;;;;;;;;;;;;;;;1.28;100.00;100021.31;5594714;31;33967;-82
2021/12/11 10:53:51;;;;;;;;;;;;;;;1.28;100.00;100021.31;5594476;31;34181;-82
2021/12/11 10:56:56;;;;;;;;;;;;;;;1.11;100.00;100019.69;5595747;31;35163;-81
2021/12/11 11:00:05;;;;;;;;;;;;;;;1.25;100.00;100021.50;5597536;31;34352;-81
2021/12/11 11:03:07;;;;;;;;;;;;;;;1.37;100.00;100005.16;5595969;31;34861;-84
2021/12/11 11:06:10;;;;;;;;;;;;;;;1.46;100.00;100009.81;5596084;31;34448;-83
2021/12/11 11:09:13;;;;;;;;;;;;;;;1.31;100.00;100002.87;5596956;31;34193;-81
2021/12/11 11:12:20;;;;;;;;;;;;;;;1.30;100.00;99999.44;5598137;31;34029;-81
2021/12/11 11:15:25;;;;;;;;;;;;;;;1.38;100.00;100001.62;5604421;31;34741;-81
2021/12/11 11:18:29;;;;;;;;;;;;;;;1.28;100.00;99995.25;5603099;31;34466;-81
2021/12/11 11:21:34;;;;;;;;;;;;;;;1.09;100.00;100006.72;5604625;31;34051;-81
2021/12/11 11:24:39;;;;;;;;;;;;;;;1.20;100.00;100001.75;5604107;31;34371;-81
2021/12/11 11:27:43;;;;;;;;;;;;;;;1.19;100.00;99997.44;5603152;31;34428;-83
2021/12/11 11:30:49;;;;;;;;;;;;;;;1.31;100.00;99988.09;5603905;31;35375;-81
2021/12/11 11:33:51;;;;;;;;;;;;;;;1.26;100.00;99981.47;5599947;31;34459;-82
2021/12/11 11:36:56;;;;;;;;;;;;;;;1.41;100.00;99985.78;5602210;31;35474;-82
2021/12/11 11:40:00;;;;;;;;;;;;;;;1.39;100.00;99980.66;5603036;31;34033;-81
2021/12/11 11:43:04;;;;;;;;;;;;;;;1.57;100.00;99982.28;5599903;31;34387;-81
2021/12/11 11:46:07;;;;;;;;;;;;;;;1.38;100.00;99991.19;5598271;31;34152;-82
2021/12/11 11:49:11;;;;;;;;;;;;;;;1.34;100.00;99992.28;5598591;31;34491;-81
2021/12/11 11:52:18;;;;;;;;;;;;;;;1.44;100.00;99998.63;5598211;31;34225;-81
2021/12/11 11:55:28;;;;;;;;;;;;;;;1.60;100.00;99997.75;5597852;31;35120;-83
2021/12/11 11:58:32;;;;;;;;;;;;;;;1.61;100.00;100012.47;5598200;31;34097;-82
2021/12/11 12:01:40;;;;;;;;;;;;;;;1.46;100.00;100020.25;5597396;31;34441;-83
2021/12/11 12:04:47;;;;;;;;;;;;;;;1.47;100.00;100021.94;5596946;31;34417;-82
2021/12/11 12:07:52;;;;;;;;;;;;;;;1.44;100.00;100024.69;5595612;31;34399;-84
2021/12/11 12:11:00;;;;;;;;;;;;;;;1.43;100.00;100025.62;5597756;31;34338;-83
2021/12/11 12:14:04;;;;;;;;;;;;;;;1.42;100.00;100023.94;5597947;31;33922;-82
2021/12/11 12:17:08;;;;;;;;;;;;;;;1.39;100.00;100029.38;5598328;31;33830;-83
2021/12/11 12:20:14;;;;;;;;;;;;;;;1.34;100.00;100041.81;5596873;31;34949;-83
2021/12/11 12:23:18;;;;;;;;;;;;;;;1.39;100.00;100035.41;5598571;31;34294;-83
2021/12/11 12:26:23;;;;;;;;;;;;;;;1.38;100.00;100045.94;5597076;31;34558;-82
2021/12/11 12:29:27;;;;;;;;;;;;;;;1.23;100.00;100061.50;5597121;31;34771;-82
2021/12/11 12:32:36;;;;;;;;;;;;;;;1.19;100.00;100054.78;5597298;31;35190;-82
2021/12/11 12:35:42;;;;;;;;;;;;;;;1.40;100.00;100051.91;5596910;31;33865;-82
2021/12/11 12:38:46;;;;;;;;;;;;;;;1.39;100.00;100047.63;5596760;31;35221;-83
2021/12/11 12:42:04;;;;;;;;;;;;;;;1.27;100.00;100048.31;5596545;31;34121;-82
2021/12/11 12:45:28;;;;;;;;;;;;;;;1.33;100.00;100045.34;5596948;31;34364;-82
2021/12/11 12:48:32;;;;;;;;;;;;;;;1.45;100.00;100039.41;5557982;32;35230;-81
2021/12/11 12:51:35;;;;;;;;;;;;;;;1.18;100.00;100040.06;5558811;32;34714;-81
2021/12/11 12:54:41;;;;;;;;;;;;;;;1.27;100.00;100045.72;5558546;32;34200;-82
2021/12/11 12:57:45;;;;;;;;;;;;;;;1.42;100.00;100043.97;5557874;32;34756;-81
2021/12/11 13:00:50;;;;;;;;;;;;;;;1.26;100.00;100031.81;5557293;32;35235;-81
2021/12/11 13:03:55;;;;;;;;;;;;;;;1.26;100.00;100036.22;5558250;32;34823;-82
2021/12/11 13:07:07;;;;;;;;;;;;;;;1.32;100.00;100033.22;5558253;32;34804;-82
2021/12/11 13:10:12;;;;;;;;;;;;;;;1.30;100.00;100035.09;5556943;32;35362;-81
2021/12/11 13:13:17;;;;;;;;;;;;;;;1.30;100.00;100022.91;5558321;32;33888;-85
2021/12/11 13:16:26;;;;;;;;;;;;;;;1.37;100.00;100026.00;5557614;32;34339;-82
2021/12/11 13:19:37;;;;;;;;;;;;;;;1.42;100.00;100031.78;5557268;32;34957;-81
2021/12/11 13:22:42;;;;;;;;;;;;;;;1.48;100.00;100026.22;5556998;32;33949;-82
2021/12/11 13:25:48;;;;;;;;;;;;;;;1.35;100.00;100026.06;5565498;32;33846;-82
2021/12/11 13:28:54;;;;;;;;;;;;;;;1.39;100.00;100024.16;5567324;32;34937;-84
2021/12/11 13:32:04;;;;;;;;;;;;;;;1.35;100.00;100033.06;5557443;32;34214;-82
2021/12/11 13:35:09;;;;;;;;;;;;;;;1.48;100.00;100034.03;5556886;32;34494;-82
2021/12/11 13:38:13;;;;;;;;;;;;;;;1.46;100.00;100038.50;5559216;32;34614;-82
2021/12/11 13:41:18;;;;;;;;;;;;;;;1.37;100.00;100033.81;5558082;32;34097;-82
2021/12/11 13:44:42;;;;;;;;;;;;;;;1.46;100.00;100048.09;5556536;32;34932;-82
2021/12/11 13:47:47;;;;;;;;;;;;;;;1.36;100.00;100051.22;5588530;31;34318;-82
2021/12/11 13:50:53;;;;;;;;;;;;;;;1.49;100.00;100059.19;5596239;31;34654;-84
2021/12/11 13:53:56;;;;;;;;;;;;;;;1.37;100.00;100068.53;5598539;31;34394;-83
2021/12/11 13:57:03;;;;;;;;;;;;;;;1.36;100.00;100068.63;5599489;31;34587;-82
2021/12/11 14:00:10;;;;;;;;;;;;;;;1.42;100.00;100065.66;5599245;31;34269;-82
2021/12/11 14:03:15;;;;;;;;;;;;;;;1.38;100.00;100065.00;5598201;31;34436;-82
2021/12/11 14:06:19;;;;;;;;;;;;;;;1.43;100.00;100058.69;5596181;31;35453;-82
2021/12/11 14:09:22;;;;;;;;;;;;;;;1.38;100.00;100046.75;5596818;31;34751;-83
2021/12/11 14:12:28;;;;;;;;;;;;;;;1.36;100.00;100050.37;5595748;31;34271;-82
2021/12/11 14:15:31;;;;;;;;;;;;;;;1.24;100.00;100046.69;5595901;31;34784;-82
2021/12/11 14:18:34;;;;;;;;;;;;;;;1.18;100.00;100055.69;5595415;31;34422;-82
2021/12/11 14:21:39;;;;;;;;;;;;;;;1.16;100.00;100068.00;5595806;31;34339;-82
2021/12/11 14:24:42;;;;;;;;;;;;;;;1.18;100.00;100066.12;5595789;31;34788;-83
2021/12/11 14:27:46;;;;;;;;;;;;;;;1.25;100.00;100069.22;5594948;31;33897;-83
2021/12/11 14:30:53;;;;;;;;;;;;;;;1.22;100.00;100080.69;5596475;31;32884;-82
2021/12/11 14:34:01;;;;;;;;;;;;;;;1.38;100.00;100087.63;5597812;31;34096;-82
2021/12/11 14:37:06;;;;;;;;;;;;;;;1.32;100.00;100095.78;5595653;31;34995;-82
2021/12/11 14:40:10;;;;;;;;;;;;;;;1.27;100.00;100103.03;5594883;31;34723;-82
2021/12/11 14:43:14;;;;;;;;;;;;;;;1.34;100.00;100105.22;5595333;31;34002;-83
2021/12/11 14:46:17;;;;;;;;;;;;;;;1.22;100.00;100101.53;5594542;31;34498;-82
2021/12/11 14:49:20;;;;;;;;;;;;;;;1.40;100.00;100104.03;5596598;31;34525;-82
2021/12/11 14:52:25;;;;;;;;;;;;;;;1.39;100.00;100112.78;5595337;31;34654;-82
2021/12/11 14:55:31;;;;;;;;;;;;;;;1.33;100.00;100128.75;5595122;31;34134;-82
2021/12/11 14:58:37;;;;;;;;;;;;;;;1.19;100.00;100134.75;5593996;31;34503;-82
2021/12/11 15:01:44;;;;;;;;;;;;;;;1.11;100.00;100129.13;5594670;31;33865;-82
2021/12/11 15:04:50;;;;;;;;;;;;;;;1.16;100.00;100129.69;5598225;31;34840;-83
2021/12/11 15:07:53;;;;;;;;;;;;;;;1.20;100.00;100139.84;5598773;31;34485;-82
2021/12/11 15:11:01;;;;;;;;;;;;;;;1.25;100.00;100139.59;5597657;31;34504;-82
2021/12/11 15:14:07;;;;;;;;;;;;;;;1.12;100.00;100136.84;5597871;31;34189;-82
2021/12/11 15:17:15;;;;;;;;;;;;;;;1.09;100.00;100131.78;5597559;31;34622;-83
2021/12/11 15:20:21;;;;;;;;;;;;;;;1.09;100.00;100137.00;5598952;31;34256;-82
2021/12/11 15:23:25;;;;;;;;;;;;;;;1.07;100.00;100138.84;5598395;31;34534;-82
2021/12/11 15:26:29;;;;;;;;;;;;;;;1.02;100.00;100135.66;5598693;31;34011;-82
2021/12/11 15:29:36;;;;;;;;;;;;;;;1.22;100.00;100148.44;5599345;31;34380;-82
2021/12/11 15:32:39;;;;;;;;;;;;;;;1.09;100.00;100147.44;5604358;31;34364;-82
2021/12/11 15:35:45;;;;;;;;;;;;;;;1.05;100.00;100135.50;5602617;31;34095;-82
2021/12/11 15:38:52;;;;;;;;;;;;;;;1.12;100.00;100143.84;5598956;31;34231;-82
2021/12/11 15:41:55;;;;;;;;;;;;;;;1.04;100.00;100139.88;5597527;31;33800;-82
2021/12/11 15:45:00;;;;;;;;;;;;;;;1.00;100.00;100145.31;5596859;31;33721;-82
2021/12/11 15:48:03;;;;;;;;;;;;;;;1.00;100.00;100135.75;5597289;31;35121;-82
2021/12/11 15:51:06;;;;;;;;;;;;;;;0.86;100.00;100141.69;5597519;31;34441;-81
2021/12/11 15:54:10;;;;;;;;;;;;;;;0.80;100.00;100142.03;5597727;31;36819;-81
2021/12/11 15:57:15;;;;;;;;;;;;;;;0.89;100.00;100141.53;5598302;31;34417;-81
2021/12/11 16:00:19;;;;;;;;;;;;;;;0.80;100.00;100142.03;5597727;31;35343;-81
2021/12/11 16:03:22;;;;;;;;;;;;;;;0.92;100.00;100146.59;5597505;31;35035;-82
2021/12/11 16:06:31;;;;;;;;;;;;;;;0.88;100.00;100150.28;5597233;31;34850;-82
2021/12/11 16:09:36;;;;;;;;;;;;;;;0.95;100.00;100152.56;5596989;31;34175;-82
2021/12/11 16:12:38;;;;;;;;;;;;;;;0.97;100.00;100163.72;5596682;31;33997;-82
2021/12/11 16:15:44;;;;;;;;;;;;;;;0.85;100.00;100167.84;5595923;31;34038;-82
2021/12/11 16:18:46;;;;;;;;;;;;;;;0.70;100.00;100165.13;5598934;31;34706;-82
2021/12/11 16:21:49;;;;;;;;;;;;;;;0.78;100.00;100180.34;5597120;31;34173;-82